sensor_id;sensor_type;location;lat;lon;timestamp;P1;durP1;ratioP1;P2;durP2;ratioP2
61962;SDS011;47927;42.646;23.096;2022-09-27T00:01:01;12.18;;;7.85;;
61962;SDS011;47927;42.646;23.096;2022-09-27T00:03:28;9.60;;;6.80;;
61962;SDS011;47927;42.646;23.096;2022-09-27T00:06:04;11.50;;;8.68;;
61962;SDS011;47927;42.646;23.096;2022-09-27T00:08:33;12.07;;;7.67;;
61962;SDS011;47927;42.646;23.096;2022-09-27T00:11:00;13.07;;;7.35;;
61962;SDS011;47927;42.646;23.096;2022-09-27T00:13:27;9.40;;;6.53;;
61962;SDS011;47927;42.646;23.096;2022-09-27T00:15:59;10.18;;;6.78;;
61962;SDS011;47927;42.646;23.096;2022-09-27T00:18:28;13.18;;;7.60;;
61962;SDS011;47927;42.646;23.096;2022-09-27T00:20:55;10.77;;;7.15;;
61962;SDS011;47927;42.646;23.096;2022-09-27T00:23:21;10.95;;;6.95;;
61962;SDS011;47927;42.646;23.096;2022-09-27T00:25:56;11.23;;;7.00;;
61962;SDS011;47927;42.646;23.096;2022-09-27T00:28:22;9.70;;;6.50;;
61962;SDS011;47927;42.646;23.096;2022-09-27T00:30:49;13.55;;;7.70;;
61962;SDS011;47927;42.646;23.096;2022-09-27T00:33:14;10.05;;;6.38;;
61962;SDS011;47927;42.646;23.096;2022-09-27T00:35:40;13.65;;;9.02;;
61962;SDS011;47927;42.646;23.096;2022-09-27T00:38:05;8.63;;;6.35;;
61962;SDS011;47927;42.646;23.096;2022-09-27T00:40:31;9.60;;;7.72;;
61962;SDS011;47927;42.646;23.096;2022-09-27T00:42:57;10.80;;;8.93;;
61962;SDS011;47927;42.646;23.096;2022-09-27T00:45:23;13.32;;;8.02;;
61962;SDS011;47927;42.646;23.096;2022-09-27T00:47:50;10.35;;;8.27;;
61962;SDS011;47927;42.646;23.096;2022-09-27T00:55:31;11.68;;;7.70;;
61962;SDS011;47927;42.646;23.096;2022-09-27T00:58:04;13.05;;;8.43;;
61962;SDS011;47927;42.646;23.096;2022-09-27T01:00:32;10.55;;;8.27;;
61962;SDS011;47927;42.646;23.096;2022-09-27T01:02:59;13.13;;;8.95;;
61962;SDS011;47927;42.646;23.096;2022-09-27T01:05:27;14.57;;;7.75;;
61962;SDS011;47927;42.646;23.096;2022-09-27T01:07:54;13.88;;;8.18;;
61962;SDS011;47927;42.646;23.096;2022-09-27T01:10:21;8.57;;;7.63;;
61962;SDS011;47927;42.646;23.096;2022-09-27T01:12:57;9.00;;;7.72;;
61962;SDS011;47927;42.646;23.096;2022-09-27T01:15:54;11.52;;;7.40;;
61962;SDS011;47927;42.646;23.096;2022-09-27T01:18:29;8.88;;;6.47;;
61962;SDS011;47927;42.646;23.096;2022-09-27T01:32:21;11.90;;;7.00;;
61962;SDS011;47927;42.646;23.096;2022-09-27T01:37:34;10.52;;;7.07;;
61962;SDS011;47927;42.646;23.096;2022-09-27T01:40:29;12.20;;;6.88;;
61962;SDS011;47927;42.646;23.096;2022-09-27T01:43:55;12.52;;;6.57;;
61962;SDS011;47927;42.646;23.096;2022-09-27T01:46:40;12.07;;;7.30;;
61962;SDS011;47927;42.646;23.096;2022-09-27T01:49:25;11.20;;;6.05;;
61962;SDS011;47927;42.646;23.096;2022-09-27T01:52:13;11.25;;;6.07;;
61962;SDS011;47927;42.646;23.096;2022-09-27T01:54:46;12.32;;;6.65;;
61962;SDS011;47927;42.646;23.096;2022-09-27T01:57:31;10.68;;;7.43;;
61962;SDS011;47927;42.646;23.096;2022-09-27T02:00:07;9.98;;;7.03;;
61962;SDS011;47927;42.646;23.096;2022-09-27T02:02:45;14.50;;;7.88;;
61962;SDS011;47927;42.646;23.096;2022-09-27T02:05:44;13.73;;;9.10;;
61962;SDS011;47927;42.646;23.096;2022-09-27T02:09:02;13.95;;;9.35;;
61962;SDS011;47927;42.646;23.096;2022-09-27T02:12:02;16.73;;;9.27;;
61962;SDS011;47927;42.646;23.096;2022-09-27T02:14:45;13.57;;;10.07;;
61962;SDS011;47927;42.646;23.096;2022-09-27T02:17:24;14.15;;;9.32;;
61962;SDS011;47927;42.646;23.096;2022-09-27T02:25:55;16.80;;;12.05;;
61962;SDS011;47927;42.646;23.096;2022-09-27T02:28:30;14.45;;;11.57;;
61962;SDS011;47927;42.646;23.096;2022-09-27T02:31:03;13.57;;;10.52;;
61962;SDS011;47927;42.646;23.096;2022-09-27T02:33:38;15.40;;;10.85;;
61962;SDS011;47927;42.646;23.096;2022-09-27T02:36:33;15.20;;;9.20;;
61962;SDS011;47927;42.646;23.096;2022-09-27T02:39:00;11.25;;;8.75;;
61962;SDS011;47927;42.646;23.096;2022-09-27T02:41:27;13.75;;;10.27;;
61962;SDS011;47927;42.646;23.096;2022-09-27T02:44:01;10.77;;;9.10;;
61962;SDS011;47927;42.646;23.096;2022-09-27T02:55:12;12.13;;;9.38;;
61962;SDS011;47927;42.646;23.096;2022-09-27T03:00:48;11.18;;;8.25;;
61962;SDS011;47927;42.646;23.096;2022-09-27T03:06:42;14.48;;;9.48;;
61962;SDS011;47927;42.646;23.096;2022-09-27T03:09:20;13.90;;;8.98;;
61962;SDS011;47927;42.646;23.096;2022-09-27T03:11:47;13.45;;;8.55;;
61962;SDS011;47927;42.646;23.096;2022-09-27T03:14:13;11.57;;;8.55;;
61962;SDS011;47927;42.646;23.096;2022-09-27T03:16:48;12.55;;;8.40;;
61962;SDS011;47927;42.646;23.096;2022-09-27T03:19:49;9.77;;;7.75;;
61962;SDS011;47927;42.646;23.096;2022-09-27T03:22:35;10.60;;;6.57;;
61962;SDS011;47927;42.646;23.096;2022-09-27T03:25:03;13.68;;;7.80;;
61962;SDS011;47927;42.646;23.096;2022-09-27T03:27:30;10.05;;;7.97;;
61962;SDS011;47927;42.646;23.096;2022-09-27T03:29:56;10.25;;;7.90;;
61962;SDS011;47927;42.646;23.096;2022-09-27T03:32:22;10.02;;;8.30;;
61962;SDS011;47927;42.646;23.096;2022-09-27T03:35:10;9.38;;;7.70;;
61962;SDS011;47927;42.646;23.096;2022-09-27T03:37:36;9.63;;;7.88;;
61962;SDS011;47927;42.646;23.096;2022-09-27T03:40:03;11.65;;;7.95;;
61962;SDS011;47927;42.646;23.096;2022-09-27T03:42:29;17.25;;;8.82;;
61962;SDS011;47927;42.646;23.096;2022-09-27T03:44:55;12.30;;;8.48;;
61962;SDS011;47927;42.646;23.096;2022-09-27T03:47:20;12.23;;;8.13;;
61962;SDS011;47927;42.646;23.096;2022-09-27T03:49:47;15.82;;;8.27;;
61962;SDS011;47927;42.646;23.096;2022-09-27T03:52:14;11.23;;;7.93;;
61962;SDS011;47927;42.646;23.096;2022-09-27T03:54:41;11.63;;;9.13;;
61962;SDS011;47927;42.646;23.096;2022-09-27T03:57:07;10.15;;;8.13;;
61962;SDS011;47927;42.646;23.096;2022-09-27T03:59:33;12.73;;;8.45;;
61962;SDS011;47927;42.646;23.096;2022-09-27T04:02:27;12.07;;;9.00;;
61962;SDS011;47927;42.646;23.096;2022-09-27T04:05:13;13.05;;;8.88;;
61962;SDS011;47927;42.646;23.096;2022-09-27T04:07:39;12.40;;;9.00;;
61962;SDS011;47927;42.646;23.096;2022-09-27T04:10:05;10.30;;;8.25;;
61962;SDS011;47927;42.646;23.096;2022-09-27T04:12:33;12.90;;;9.18;;
61962;SDS011;47927;42.646;23.096;2022-09-27T04:15:00;11.80;;;8.00;;
61962;SDS011;47927;42.646;23.096;2022-09-27T04:17:51;10.40;;;7.53;;
61962;SDS011;47927;42.646;23.096;2022-09-27T04:20:32;10.18;;;7.93;;
61962;SDS011;47927;42.646;23.096;2022-09-27T04:25:27;8.85;;;6.15;;
61962;SDS011;47927;42.646;23.096;2022-09-27T04:27:56;11.50;;;7.85;;
61962;SDS011;47927;42.646;23.096;2022-09-27T04:30:22;8.63;;;6.90;;
61962;SDS011;47927;42.646;23.096;2022-09-27T04:33:09;9.38;;;7.32;;
61962;SDS011;47927;42.646;23.096;2022-09-27T04:35:52;13.75;;;7.45;;
61962;SDS011;47927;42.646;23.096;2022-09-27T04:38:39;8.80;;;6.68;;
61962;SDS011;47927;42.646;23.096;2022-09-27T04:41:06;8.60;;;6.78;;
61962;SDS011;47927;42.646;23.096;2022-09-27T04:43:35;11.05;;;7.78;;
61962;SDS011;47927;42.646;23.096;2022-09-27T04:46:01;9.68;;;7.20;;
61962;SDS011;47927;42.646;23.096;2022-09-27T04:48:27;8.52;;;6.82;;
61962;SDS011;47927;42.646;23.096;2022-09-27T04:50:57;11.57;;;7.43;;
61962;SDS011;47927;42.646;23.096;2022-09-27T04:53:24;12.13;;;7.20;;
61962;SDS011;47927;42.646;23.096;2022-09-27T04:55:51;12.55;;;7.95;;
61962;SDS011;47927;42.646;23.096;2022-09-27T04:58:18;10.55;;;7.75;;
61962;SDS011;47927;42.646;23.096;2022-09-27T05:00:45;12.65;;;7.32;;
61962;SDS011;47927;42.646;23.096;2022-09-27T05:03:40;10.73;;;7.38;;
61962;SDS011;47927;42.646;23.096;2022-09-27T05:06:25;9.02;;;7.15;;
61962;SDS011;47927;42.646;23.096;2022-09-27T05:08:53;10.88;;;7.55;;
61962;SDS011;47927;42.646;23.096;2022-09-27T05:11:24;11.50;;;8.23;;
61962;SDS011;47927;42.646;23.096;2022-09-27T05:14:09;13.05;;;8.35;;
61962;SDS011;47927;42.646;23.096;2022-09-27T05:16:46;12.10;;;8.95;;
61962;SDS011;47927;42.646;23.096;2022-09-27T05:19:30;13.15;;;9.13;;
61962;SDS011;47927;42.646;23.096;2022-09-27T05:22:08;15.30;;;9.27;;
61962;SDS011;47927;42.646;23.096;2022-09-27T05:24:34;15.80;;;9.15;;
61962;SDS011;47927;42.646;23.096;2022-09-27T05:27:00;12.68;;;8.73;;
61962;SDS011;47927;42.646;23.096;2022-09-27T05:29:33;18.30;;;9.13;;
61962;SDS011;47927;42.646;23.096;2022-09-27T05:32:18;9.20;;;7.22;;
61962;SDS011;47927;42.646;23.096;2022-09-27T05:34:49;12.65;;;8.00;;
61962;SDS011;47927;42.646;23.096;2022-09-27T05:37:18;10.35;;;7.93;;
61962;SDS011;47927;42.646;23.096;2022-09-27T05:39:44;11.30;;;7.63;;
61962;SDS011;47927;42.646;23.096;2022-09-27T05:42:12;12.60;;;7.72;;
61962;SDS011;47927;42.646;23.096;2022-09-27T05:44:40;9.05;;;7.90;;
61962;SDS011;47927;42.646;23.096;2022-09-27T05:47:06;11.25;;;8.18;;
61962;SDS011;47927;42.646;23.096;2022-09-27T05:49:32;12.90;;;8.20;;
61962;SDS011;47927;42.646;23.096;2022-09-27T05:51:59;9.50;;;7.88;;
61962;SDS011;47927;42.646;23.096;2022-09-27T05:54:27;8.55;;;7.25;;
61962;SDS011;47927;42.646;23.096;2022-09-27T05:56:55;9.88;;;8.10;;
61962;SDS011;47927;42.646;23.096;2022-09-27T05:59:50;9.02;;;6.85;;
61962;SDS011;47927;42.646;23.096;2022-09-27T06:02:16;9.45;;;6.32;;
61962;SDS011;47927;42.646;23.096;2022-09-27T06:05:01;7.80;;;5.80;;
61962;SDS011;47927;42.646;23.096;2022-09-27T06:08:07;7.57;;;5.80;;
61962;SDS011;47927;42.646;23.096;2022-09-27T06:10:40;10.02;;;6.13;;
61962;SDS011;47927;42.646;23.096;2022-09-27T06:13:10;8.23;;;5.93;;
61962;SDS011;47927;42.646;23.096;2022-09-27T06:15:41;9.45;;;5.93;;
61962;SDS011;47927;42.646;23.096;2022-09-27T06:18:14;8.63;;;6.07;;
61962;SDS011;47927;42.646;23.096;2022-09-27T06:20:45;6.82;;;5.82;;
61962;SDS011;47927;42.646;23.096;2022-09-27T06:23:12;7.40;;;6.22;;
61962;SDS011;47927;42.646;23.096;2022-09-27T06:25:46;8.98;;;6.82;;
61962;SDS011;47927;42.646;23.096;2022-09-27T06:28:37;9.45;;;6.10;;
61962;SDS011;47927;42.646;23.096;2022-09-27T06:31:04;7.25;;;6.00;;
61962;SDS011;47927;42.646;23.096;2022-09-27T06:33:45;10.48;;;6.45;;
61962;SDS011;47927;42.646;23.096;2022-09-27T06:36:12;9.43;;;6.40;;
61962;SDS011;47927;42.646;23.096;2022-09-27T06:38:40;7.18;;;5.97;;
61962;SDS011;47927;42.646;23.096;2022-09-27T06:41:29;9.97;;;6.67;;
61962;SDS011;47927;42.646;23.096;2022-09-27T06:44:09;8.07;;;6.10;;
61962;SDS011;47927;42.646;23.096;2022-09-27T06:46:58;10.90;;;6.30;;
61962;SDS011;47927;42.646;23.096;2022-09-27T06:49:41;8.50;;;7.30;;
61962;SDS011;47927;42.646;23.096;2022-09-27T06:52:07;12.15;;;7.32;;
61962;SDS011;47927;42.646;23.096;2022-09-27T06:54:33;9.82;;;7.35;;
61962;SDS011;47927;42.646;23.096;2022-09-27T06:56:59;10.10;;;7.18;;
61962;SDS011;47927;42.646;23.096;2022-09-27T06:59:24;13.40;;;8.20;;
61962;SDS011;47927;42.646;23.096;2022-09-27T07:02:27;11.15;;;8.32;;
61962;SDS011;47927;42.646;23.096;2022-09-27T07:05:16;12.23;;;8.57;;
61962;SDS011;47927;42.646;23.096;2022-09-27T07:08:05;10.70;;;8.32;;
61962;SDS011;47927;42.646;23.096;2022-09-27T07:10:33;9.65;;;8.25;;
61962;SDS011;47927;42.646;23.096;2022-09-27T07:13:06;10.02;;;7.60;;
61962;SDS011;47927;42.646;23.096;2022-09-27T07:15:33;9.27;;;6.95;;
61962;SDS011;47927;42.646;23.096;2022-09-27T07:18:07;12.07;;;7.72;;
61962;SDS011;47927;42.646;23.096;2022-09-27T07:20:33;9.05;;;7.85;;
61962;SDS011;47927;42.646;23.096;2022-09-27T07:23:03;8.63;;;6.80;;
61962;SDS011;47927;42.646;23.096;2022-09-27T07:25:31;9.68;;;7.55;;
61962;SDS011;47927;42.646;23.096;2022-09-27T07:28:02;9.10;;;6.45;;
61962;SDS011;47927;42.646;23.096;2022-09-27T07:30:29;8.05;;;6.70;;
61962;SDS011;47927;42.646;23.096;2022-09-27T07:32:58;7.57;;;6.50;;
61962;SDS011;47927;42.646;23.096;2022-09-27T07:37:52;9.48;;;6.47;;
61962;SDS011;47927;42.646;23.096;2022-09-27T07:40:19;8.02;;;6.53;;
61962;SDS011;47927;42.646;23.096;2022-09-27T07:42:45;9.45;;;7.00;;
61962;SDS011;47927;42.646;23.096;2022-09-27T07:45:11;11.43;;;7.53;;
61962;SDS011;47927;42.646;23.096;2022-09-27T07:47:56;8.30;;;7.28;;
61962;SDS011;47927;42.646;23.096;2022-09-27T07:50:41;15.50;;;10.02;;
61962;SDS011;47927;42.646;23.096;2022-09-27T07:53:36;13.20;;;10.02;;
61962;SDS011;47927;42.646;23.096;2022-09-27T07:56:25;13.55;;;8.18;;
61962;SDS011;47927;42.646;23.096;2022-09-27T07:58:52;10.13;;;8.60;;
61962;SDS011;47927;42.646;23.096;2022-09-27T08:01:17;10.85;;;9.70;;
61962;SDS011;47927;42.646;23.096;2022-09-27T08:03:43;16.23;;;10.23;;
61962;SDS011;47927;42.646;23.096;2022-09-27T08:06:11;18.98;;;11.82;;
61962;SDS011;47927;42.646;23.096;2022-09-27T08:08:37;11.55;;;10.07;;
61962;SDS011;47927;42.646;23.096;2022-09-27T08:11:14;12.93;;;11.18;;
61962;SDS011;47927;42.646;23.096;2022-09-27T08:13:42;15.77;;;11.10;;
61962;SDS011;47927;42.646;23.096;2022-09-27T08:16:09;14.05;;;10.70;;
61962;SDS011;47927;42.646;23.096;2022-09-27T08:19:02;14.55;;;9.93;;
61962;SDS011;47927;42.646;23.096;2022-09-27T08:21:46;11.60;;;9.95;;
61962;SDS011;47927;42.646;23.096;2022-09-27T08:24:26;14.30;;;9.63;;
61962;SDS011;47927;42.646;23.096;2022-09-27T08:27:11;10.10;;;7.88;;
61962;SDS011;47927;42.646;23.096;2022-09-27T08:29:52;10.45;;;7.68;;
61962;SDS011;47927;42.646;23.096;2022-09-27T08:32:17;9.70;;;8.65;;
61962;SDS011;47927;42.646;23.096;2022-09-27T08:34:43;10.32;;;9.27;;
61962;SDS011;47927;42.646;23.096;2022-09-27T08:37:09;14.48;;;8.18;;
61962;SDS011;47927;42.646;23.096;2022-09-27T08:39:37;9.63;;;8.63;;
61962;SDS011;47927;42.646;23.096;2022-09-27T08:44:49;11.07;;;8.73;;
61962;SDS011;47927;42.646;23.096;2022-09-27T08:50:39;14.65;;;10.10;;
61962;SDS011;47927;42.646;23.096;2022-09-27T08:53:06;15.63;;;8.05;;
61962;SDS011;47927;42.646;23.096;2022-09-27T08:55:47;11.10;;;8.60;;
61962;SDS011;47927;42.646;23.096;2022-09-27T08:58:34;14.57;;;9.10;;
61962;SDS011;47927;42.646;23.096;2022-09-27T09:01:11;15.45;;;8.50;;
61962;SDS011;47927;42.646;23.096;2022-09-27T09:03:54;10.00;;;8.57;;
61962;SDS011;47927;42.646;23.096;2022-09-27T09:06:26;13.98;;;8.52;;
61962;SDS011;47927;42.646;23.096;2022-09-27T09:09:02;13.95;;;8.25;;
61962;SDS011;47927;42.646;23.096;2022-09-27T09:17:42;12.82;;;8.05;;
61962;SDS011;47927;42.646;23.096;2022-09-27T09:31:14;8.30;;;5.90;;
61962;SDS011;47927;42.646;23.096;2022-09-27T09:33:51;8.18;;;5.45;;
61962;SDS011;47927;42.646;23.096;2022-09-27T09:36:28;10.95;;;5.38;;
61962;SDS011;47927;42.646;23.096;2022-09-27T09:39:02;6.20;;;5.07;;
61962;SDS011;47927;42.646;23.096;2022-09-27T09:41:37;7.95;;;5.15;;
61962;SDS011;47927;42.646;23.096;2022-09-27T09:46:50;8.35;;;4.03;;
61962;SDS011;47927;42.646;23.096;2022-09-27T09:49:25;6.18;;;4.18;;
61962;SDS011;47927;42.646;23.096;2022-09-27T09:51:57;5.90;;;3.88;;
61962;SDS011;47927;42.646;23.096;2022-09-27T09:54:31;5.55;;;3.97;;
61962;SDS011;47927;42.646;23.096;2022-09-27T10:00:12;3.80;;;3.20;;
61962;SDS011;47927;42.646;23.096;2022-09-27T10:02:48;6.00;;;3.78;;
61962;SDS011;47927;42.646;23.096;2022-09-27T10:05:20;5.13;;;3.90;;
61962;SDS011;47927;42.646;23.096;2022-09-27T10:07:56;5.18;;;3.53;;
61962;SDS011;47927;42.646;23.096;2022-09-27T10:10:25;5.53;;;3.67;;
61962;SDS011;47927;42.646;23.096;2022-09-27T10:13:01;6.25;;;3.30;;
61962;SDS011;47927;42.646;23.096;2022-09-27T10:15:31;5.18;;;3.63;;
61962;SDS011;47927;42.646;23.096;2022-09-27T10:17:58;6.97;;;2.80;;
61962;SDS011;47927;42.646;23.096;2022-09-27T10:23:15;4.75;;;2.97;;
61962;SDS011;47927;42.646;23.096;2022-09-27T10:26:08;5.05;;;3.25;;
61962;SDS011;47927;42.646;23.096;2022-09-27T10:28:48;8.47;;;3.07;;
61962;SDS011;47927;42.646;23.096;2022-09-27T10:31:20;4.00;;;3.10;;
61962;SDS011;47927;42.646;23.096;2022-09-27T10:34:01;4.07;;;2.80;;
61962;SDS011;47927;42.646;23.096;2022-09-27T10:36:40;4.22;;;2.58;;
61962;SDS011;47927;42.646;23.096;2022-09-27T10:39:14;5.78;;;3.13;;
61962;SDS011;47927;42.646;23.096;2022-09-27T10:41:49;6.45;;;3.20;;
61962;SDS011;47927;42.646;23.096;2022-09-27T10:44:36;4.97;;;2.92;;
61962;SDS011;47927;42.646;23.096;2022-09-27T10:47:33;4.97;;;3.17;;
61962;SDS011;47927;42.646;23.096;2022-09-27T10:50:10;3.83;;;2.53;;
61962;SDS011;47927;42.646;23.096;2022-09-27T10:53:02;4.68;;;2.50;;
61962;SDS011;47927;42.646;23.096;2022-09-27T10:55:34;5.43;;;2.85;;
61962;SDS011;47927;42.646;23.096;2022-09-27T10:58:01;3.30;;;2.53;;
61962;SDS011;47927;42.646;23.096;2022-09-27T11:00:32;5.32;;;2.85;;
61962;SDS011;47927;42.646;23.096;2022-09-27T11:03:02;3.33;;;2.30;;
61962;SDS011;47927;42.646;23.096;2022-09-27T11:05:36;4.13;;;2.50;;
61962;SDS011;47927;42.646;23.096;2022-09-27T11:11:02;4.22;;;2.38;;
61962;SDS011;47927;42.646;23.096;2022-09-27T11:27:36;3.00;;;1.77;;
61962;SDS011;47927;42.646;23.096;2022-09-27T11:30:21;3.75;;;2.08;;
61962;SDS011;47927;42.646;23.096;2022-09-27T11:36:09;3.40;;;2.00;;
61962;SDS011;47927;42.646;23.096;2022-09-27T11:39:42;3.13;;;2.10;;
61962;SDS011;47927;42.646;23.096;2022-09-27T12:08:48;2.67;;;1.83;;
61962;SDS011;47927;42.646;23.096;2022-09-27T12:14:41;3.08;;;1.80;;
61962;SDS011;47927;42.646;23.096;2022-09-27T12:17:11;4.00;;;1.92;;
61962;SDS011;47927;42.646;23.096;2022-09-27T12:19:46;6.45;;;1.90;;
61962;SDS011;47927;42.646;23.096;2022-09-27T12:22:28;2.88;;;1.42;;
61962;SDS011;47927;42.646;23.096;2022-09-27T12:24:59;2.45;;;1.50;;
61962;SDS011;47927;42.646;23.096;2022-09-27T12:27:46;2.55;;;1.60;;
61962;SDS011;47927;42.646;23.096;2022-09-27T12:30:27;3.05;;;1.80;;
61962;SDS011;47927;42.646;23.096;2022-09-27T12:33:05;2.38;;;1.50;;
61962;SDS011;47927;42.646;23.096;2022-09-27T12:35:43;6.00;;;2.00;;
61962;SDS011;47927;42.646;23.096;2022-09-27T12:38:20;4.97;;;2.25;;
61962;SDS011;47927;42.646;23.096;2022-09-27T12:40:52;7.97;;;2.25;;
61962;SDS011;47927;42.646;23.096;2022-09-27T12:43:30;3.72;;;1.98;;
61962;SDS011;47927;42.646;23.096;2022-09-27T12:51:39;2.85;;;1.50;;
61962;SDS011;47927;42.646;23.096;2022-09-27T12:57:25;5.95;;;1.60;;
61962;SDS011;47927;42.646;23.096;2022-09-27T13:11:10;3.92;;;1.40;;
61962;SDS011;47927;42.646;23.096;2022-09-27T13:13:58;5.22;;;1.48;;
61962;SDS011;47927;42.646;23.096;2022-09-27T13:16:27;2.80;;;1.35;;
61962;SDS011;47927;42.646;23.096;2022-09-27T13:18:54;3.47;;;1.33;;
61962;SDS011;47927;42.646;23.096;2022-09-27T13:32:34;6.57;;;1.92;;
61962;SDS011;47927;42.646;23.096;2022-09-27T13:37:57;7.15;;;1.70;;
61962;SDS011;47927;42.646;23.096;2022-09-27T13:40:46;5.63;;;1.80;;
61962;SDS011;47927;42.646;23.096;2022-09-27T13:43:51;7.20;;;1.80;;
61962;SDS011;47927;42.646;23.096;2022-09-27T13:46:42;3.90;;;1.65;;
61962;SDS011;47927;42.646;23.096;2022-09-27T13:49:23;6.63;;;2.00;;
61962;SDS011;47927;42.646;23.096;2022-09-27T13:52:18;4.95;;;1.55;;
61962;SDS011;47927;42.646;23.096;2022-09-27T14:01:48;9.57;;;2.00;;
61962;SDS011;47927;42.646;23.096;2022-09-27T14:04:21;5.50;;;1.60;;
61962;SDS011;47927;42.646;23.096;2022-09-27T14:06:52;4.85;;;1.70;;
61962;SDS011;47927;42.646;23.096;2022-09-27T14:09:25;9.18;;;1.67;;
61962;SDS011;47927;42.646;23.096;2022-09-27T14:12:16;6.75;;;1.80;;
61962;SDS011;47927;42.646;23.096;2022-09-27T14:14:45;6.35;;;1.60;;
61962;SDS011;47927;42.646;23.096;2022-09-27T14:17:14;5.43;;;2.35;;
61962;SDS011;47927;42.646;23.096;2022-09-27T14:19:41;4.45;;;1.50;;
61962;SDS011;47927;42.646;23.096;2022-09-27T14:22:13;5.85;;;1.90;;
61962;SDS011;47927;42.646;23.096;2022-09-27T14:24:53;4.15;;;1.40;;
61962;SDS011;47927;42.646;23.096;2022-09-27T14:27:26;5.72;;;1.90;;
61962;SDS011;47927;42.646;23.096;2022-09-27T14:30:12;9.02;;;1.90;;
61962;SDS011;47927;42.646;23.096;2022-09-27T14:32:48;5.22;;;1.95;;
61962;SDS011;47927;42.646;23.096;2022-09-27T14:38:13;2.70;;;1.60;;
61962;SDS011;47927;42.646;23.096;2022-09-27T14:40:58;3.03;;;1.73;;
61962;SDS011;47927;42.646;23.096;2022-09-27T14:43:24;5.70;;;1.90;;
61962;SDS011;47927;42.646;23.096;2022-09-27T14:45:51;3.80;;;1.70;;
61962;SDS011;47927;42.646;23.096;2022-09-27T14:50:55;9.45;;;1.85;;
61962;SDS011;47927;42.646;23.096;2022-09-27T16:40:35;6.00;;;3.30;;
61962;SDS011;47927;42.646;23.096;2022-09-27T16:43:01;4.78;;;3.00;;
61962;SDS011;47927;42.646;23.096;2022-09-27T16:45:29;4.53;;;3.05;;
61962;SDS011;47927;42.646;23.096;2022-09-27T16:47:57;6.78;;;3.70;;
61962;SDS011;47927;42.646;23.096;2022-09-27T16:50:23;6.43;;;3.85;;
61962;SDS011;47927;42.646;23.096;2022-09-27T16:53:07;5.05;;;3.30;;
61962;SDS011;47927;42.646;23.096;2022-09-27T16:55:34;5.63;;;3.70;;
61962;SDS011;47927;42.646;23.096;2022-09-27T16:58:00;5.75;;;3.78;;
61962;SDS011;47927;42.646;23.096;2022-09-27T17:00:27;8.32;;;3.88;;
61962;SDS011;47927;42.646;23.096;2022-09-27T17:02:55;5.80;;;4.00;;
61962;SDS011;47927;42.646;23.096;2022-09-27T17:05:21;4.15;;;2.90;;
61962;SDS011;47927;42.646;23.096;2022-09-27T17:07:50;4.35;;;2.65;;
61962;SDS011;47927;42.646;23.096;2022-09-27T17:10:17;6.45;;;3.70;;
61962;SDS011;47927;42.646;23.096;2022-09-27T17:12:44;6.25;;;2.97;;
61962;SDS011;47927;42.646;23.096;2022-09-27T17:15:13;5.03;;;3.13;;
61962;SDS011;47927;42.646;23.096;2022-09-27T17:17:39;4.30;;;3.10;;
61962;SDS011;47927;42.646;23.096;2022-09-27T17:20:05;6.25;;;3.33;;
61962;SDS011;47927;42.646;23.096;2022-09-27T17:22:31;12.70;;;3.40;;
61962;SDS011;47927;42.646;23.096;2022-09-27T17:24:56;6.32;;;3.17;;
61962;SDS011;47927;42.646;23.096;2022-09-27T17:27:23;4.13;;;2.55;;
61962;SDS011;47927;42.646;23.096;2022-09-27T17:29:52;5.75;;;2.90;;
61962;SDS011;47927;42.646;23.096;2022-09-27T17:32:19;4.35;;;2.95;;
61962;SDS011;47927;42.646;23.096;2022-09-27T17:34:51;4.80;;;3.23;;
61962;SDS011;47927;42.646;23.096;2022-09-27T17:37:17;6.50;;;4.50;;
61962;SDS011;47927;42.646;23.096;2022-09-27T17:39:43;4.60;;;2.80;;
61962;SDS011;47927;42.646;23.096;2022-09-27T17:42:09;4.90;;;3.05;;
61962;SDS011;47927;42.646;23.096;2022-09-27T17:44:35;4.78;;;3.25;;
61962;SDS011;47927;42.646;23.096;2022-09-27T17:47:01;4.75;;;2.75;;
61962;SDS011;47927;42.646;23.096;2022-09-27T17:49:46;6.43;;;2.88;;
61962;SDS011;47927;42.646;23.096;2022-09-27T17:52:30;6.55;;;2.97;;
61962;SDS011;47927;42.646;23.096;2022-09-27T17:54:58;6.32;;;3.40;;
61962;SDS011;47927;42.646;23.096;2022-09-27T17:57:24;4.47;;;3.05;;
61962;SDS011;47927;42.646;23.096;2022-09-27T17:59:50;4.40;;;2.70;;
61962;SDS011;47927;42.646;23.096;2022-09-27T18:02:15;5.75;;;2.67;;
61962;SDS011;47927;42.646;23.096;2022-09-27T18:04:41;8.15;;;2.58;;
61962;SDS011;47927;42.646;23.096;2022-09-27T18:07:07;5.40;;;2.53;;
61962;SDS011;47927;42.646;23.096;2022-09-27T18:09:32;5.82;;;2.80;;
61962;SDS011;47927;42.646;23.096;2022-09-27T18:11:58;4.10;;;2.65;;
61962;SDS011;47927;42.646;23.096;2022-09-27T18:14:23;6.90;;;2.95;;
61962;SDS011;47927;42.646;23.096;2022-09-27T18:16:51;6.35;;;2.75;;
61962;SDS011;47927;42.646;23.096;2022-09-27T18:19:18;5.30;;;3.20;;
61962;SDS011;47927;42.646;23.096;2022-09-27T18:21:44;4.90;;;2.72;;
61962;SDS011;47927;42.646;23.096;2022-09-27T18:24:10;4.75;;;2.90;;
61962;SDS011;47927;42.646;23.096;2022-09-27T18:26:36;6.22;;;3.00;;
61962;SDS011;47927;42.646;23.096;2022-09-27T18:29:04;4.10;;;2.70;;
61962;SDS011;47927;42.646;23.096;2022-09-27T18:31:32;6.63;;;3.15;;
61962;SDS011;47927;42.646;23.096;2022-09-27T18:33:58;9.82;;;3.58;;
61962;SDS011;47927;42.646;23.096;2022-09-27T18:36:24;5.53;;;3.20;;
61962;SDS011;47927;42.646;23.096;2022-09-27T18:38:54;6.05;;;3.65;;
61962;SDS011;47927;42.646;23.096;2022-09-27T18:41:22;6.00;;;2.90;;
61962;SDS011;47927;42.646;23.096;2022-09-27T18:43:51;4.65;;;3.33;;
61962;SDS011;47927;42.646;23.096;2022-09-27T18:46:23;5.32;;;3.45;;
61962;SDS011;47927;42.646;23.096;2022-09-27T18:48:50;4.80;;;2.70;;
61962;SDS011;47927;42.646;23.096;2022-09-27T18:51:17;4.45;;;2.78;;
61962;SDS011;47927;42.646;23.096;2022-09-27T18:53:52;5.28;;;3.13;;
61962;SDS011;47927;42.646;23.096;2022-09-27T18:56:19;4.43;;;2.75;;
61962;SDS011;47927;42.646;23.096;2022-09-27T18:58:44;8.75;;;3.10;;
61962;SDS011;47927;42.646;23.096;2022-09-27T19:01:11;4.70;;;2.88;;
61962;SDS011;47927;42.646;23.096;2022-09-27T19:03:38;4.68;;;2.60;;
61962;SDS011;47927;42.646;23.096;2022-09-27T19:06:06;8.90;;;3.10;;
61962;SDS011;47927;42.646;23.096;2022-09-27T19:08:40;5.32;;;2.97;;
61962;SDS011;47927;42.646;23.096;2022-09-27T19:11:13;8.52;;;3.03;;
61962;SDS011;47927;42.646;23.096;2022-09-27T19:13:41;5.40;;;2.97;;
61962;SDS011;47927;42.646;23.096;2022-09-27T19:16:07;5.30;;;3.25;;
61962;SDS011;47927;42.646;23.096;2022-09-27T19:18:37;4.60;;;2.90;;
61962;SDS011;47927;42.646;23.096;2022-09-27T20:28:02;6.93;;;4.07;;
61962;SDS011;47927;42.646;23.096;2022-09-27T20:30:28;6.75;;;3.78;;
61962;SDS011;47927;42.646;23.096;2022-09-27T20:32:53;5.93;;;3.17;;
61962;SDS011;47927;42.646;23.096;2022-09-27T20:35:37;6.30;;;2.80;;
61962;SDS011;47927;42.646;23.096;2022-09-27T20:38:03;7.53;;;2.88;;
61962;SDS011;47927;42.646;23.096;2022-09-27T20:40:29;4.95;;;2.80;;
61962;SDS011;47927;42.646;23.096;2022-09-27T20:42:54;5.03;;;2.80;;
61962;SDS011;47927;42.646;23.096;2022-09-27T20:45:20;4.63;;;2.50;;
61962;SDS011;47927;42.646;23.096;2022-09-27T20:47:45;5.85;;;3.15;;
61962;SDS011;47927;42.646;23.096;2022-09-27T20:50:11;4.28;;;2.30;;
61962;SDS011;47927;42.646;23.096;2022-09-27T20:52:37;6.18;;;2.75;;